createdAt,value
2017-10-16T00:01:13.300Z,12.77
2017-10-16T00:03:39.926Z,11.27
2017-10-16T00:06:06.537Z,11.50
2017-10-16T00:08:33.181Z,11.77
2017-10-16T00:10:59.788Z,10.63
2017-10-16T00:13:26.393Z,11.63
2017-10-16T00:15:53.022Z,11.83
2017-10-16T00:18:19.652Z,10.70
2017-10-16T00:20:46.254Z,10.90
2017-10-16T00:23:12.869Z,10.50
2017-10-16T00:25:39.515Z,12.00
2017-10-16T00:28:06.122Z,10.90
2017-10-16T00:30:32.753Z,11.40
2017-10-16T00:32:59.362Z,11.20
2017-10-16T00:35:26.067Z,10.60
2017-10-16T00:37:52.673Z,11.70
2017-10-16T00:40:19.342Z,11.13
2017-10-16T00:42:45.962Z,11.40
2017-10-16T00:45:12.605Z,10.73
2017-10-16T00:47:39.211Z,10.23
2017-10-16T00:50:05.826Z,10.47
2017-10-16T00:52:32.445Z,11.07
2017-10-16T00:54:59.053Z,16.17
2017-10-16T00:57:25.673Z,10.43
2017-10-16T00:59:52.281Z,10.57
2017-10-16T01:02:18.982Z,14.87
2017-10-16T01:04:45.589Z,11.43
2017-10-16T01:07:12.202Z,15.83
2017-10-16T01:09:38.829Z,10.33
2017-10-16T01:12:05.427Z,10.20
2017-10-16T01:14:32.070Z,11.87
2017-10-16T01:16:58.673Z,10.60
2017-10-16T01:19:25.333Z,11.17
2017-10-16T01:21:51.982Z,9.87
2017-10-16T01:24:18.585Z,11.07
2017-10-16T01:26:45.226Z,12.13
2017-10-16T01:29:11.821Z,13.43
2017-10-16T01:31:38.429Z,11.17
2017-10-16T01:34:05.075Z,10.97
2017-10-16T01:36:31.677Z,11.50
2017-10-16T01:38:58.295Z,12.00
2017-10-16T01:41:24.985Z,10.30
2017-10-16T01:43:51.605Z,11.97
2017-10-16T01:46:18.254Z,11.80
2017-10-16T01:48:44.880Z,10.07
2017-10-16T01:51:11.495Z,14.17
2017-10-16T01:53:38.109Z,16.27
2017-10-16T01:56:04.738Z,10.33
2017-10-16T01:58:31.381Z,10.97
2017-10-16T02:00:58.088Z,10.53
2017-10-16T02:03:24.678Z,11.47
2017-10-16T02:05:51.364Z,10.43
2017-10-16T02:08:17.981Z,10.53
2017-10-16T02:10:44.594Z,15.27
2017-10-16T02:13:11.277Z,12.70
2017-10-16T02:15:37.902Z,13.73
2017-10-16T02:18:04.525Z,15.23
2017-10-16T02:20:31.141Z,11.50
2017-10-16T02:22:57.749Z,15.00
2017-10-16T02:25:24.378Z,11.03
2017-10-16T02:27:51.107Z,11.90
2017-10-16T02:30:17.725Z,11.00
2017-10-16T02:32:44.345Z,14.00
2017-10-16T02:35:10.981Z,11.90
2017-10-16T02:37:37.597Z,15.83
2017-10-16T02:40:04.270Z,10.83
2017-10-16T02:42:30.885Z,11.20
2017-10-16T02:44:57.512Z,11.40
2017-10-16T02:47:24.118Z,10.90
2017-10-16T02:49:50.744Z,10.73
2017-10-16T02:52:17.382Z,17.33
2017-10-16T02:54:44.001Z,12.33
2017-10-16T02:57:10.605Z,12.27
2017-10-16T02:59:37.205Z,10.73
2017-10-16T03:02:03.828Z,10.60
2017-10-16T03:04:30.429Z,10.90
2017-10-16T03:06:57.053Z,10.57
2017-10-16T03:09:23.678Z,11.80
2017-10-16T03:11:50.285Z,11.27
2017-10-16T03:14:16.933Z,10.83
2017-10-16T03:16:43.582Z,11.27
2017-10-16T03:19:10.210Z,13.90
2017-10-16T03:21:36.830Z,10.93
2017-10-16T03:24:03.453Z,11.33
2017-10-16T03:26:30.081Z,12.40
2017-10-16T03:28:56.681Z,10.07
2017-10-16T03:31:23.305Z,10.67
2017-10-16T03:33:49.937Z,13.33
2017-10-16T03:36:16.596Z,12.83
2017-10-16T03:38:43.222Z,11.13
2017-10-16T03:41:09.831Z,10.83
2017-10-16T03:43:36.465Z,12.93
2017-10-16T03:46:03.065Z,11.23
2017-10-16T03:48:29.677Z,13.10
2017-10-16T03:50:56.301Z,13.83
2017-10-16T03:53:23.027Z,15.13
2017-10-16T03:55:49.641Z,12.57
2017-10-16T03:58:16.269Z,12.37
2017-10-16T04:00:42.874Z,11.07
2017-10-16T04:03:09.484Z,13.10
2017-10-16T04:05:36.148Z,11.70
2017-10-16T04:08:02.851Z,12.53
2017-10-16T04:10:29.473Z,13.57
2017-10-16T04:12:56.077Z,12.90
2017-10-16T04:15:22.680Z,11.63
2017-10-16T04:17:49.320Z,12.80
2017-10-16T04:20:16.448Z,12.47
2017-10-16T04:22:43.055Z,12.10
2017-10-16T04:25:09.677Z,14.90
2017-10-16T04:27:36.297Z,13.73
2017-10-16T04:30:02.929Z,16.93
2017-10-16T04:32:29.561Z,13.30
2017-10-16T04:34:56.174Z,13.80
2017-10-16T04:37:22.810Z,12.63
2017-10-16T04:39:49.433Z,15.63
2017-10-16T04:42:16.049Z,13.07
2017-10-16T04:44:42.662Z,15.50
2017-10-16T04:47:09.363Z,14.27
2017-10-16T04:49:35.965Z,14.70
2017-10-16T04:52:02.594Z,14.70
2017-10-16T04:54:29.189Z,13.60
2017-10-16T04:56:55.814Z,14.23
2017-10-16T04:59:22.421Z,13.43
2017-10-16T05:01:49.088Z,12.13
2017-10-16T05:04:15.704Z,12.17
2017-10-16T05:06:42.363Z,14.03
2017-10-16T05:09:09.001Z,14.37
2017-10-16T05:11:35.602Z,12.93
2017-10-16T05:14:02.209Z,13.77
2017-10-16T05:16:28.917Z,13.77
2017-10-16T05:18:55.553Z,15.30
2017-10-16T05:21:22.183Z,13.57
2017-10-16T05:23:48.835Z,15.60
2017-10-16T05:26:15.428Z,17.43
2017-10-16T05:28:42.061Z,18.73
2017-10-16T05:31:08.850Z,14.23
2017-10-16T05:33:35.445Z,14.83
2017-10-16T05:36:02.081Z,19.47
2017-10-16T05:38:28.689Z,13.77
2017-10-16T05:40:55.397Z,12.90
2017-10-16T05:43:22.012Z,13.23
2017-10-16T05:45:48.637Z,13.97
2017-10-16T05:48:15.294Z,16.50
2017-10-16T05:50:41.891Z,15.27
2017-10-16T05:53:08.521Z,16.40
2017-10-16T05:55:35.158Z,14.90
2017-10-16T05:58:01.786Z,18.77
2017-10-16T06:00:28.378Z,19.13
2017-10-16T06:02:55.013Z,17.27
2017-10-16T06:05:21.620Z,14.87
2017-10-16T06:07:48.312Z,14.20
2017-10-16T06:10:14.910Z,16.40
2017-10-16T06:12:41.550Z,17.17
2017-10-16T06:15:08.157Z,14.37
2017-10-16T06:17:34.789Z,16.93
2017-10-16T06:20:01.501Z,15.07
2017-10-16T06:22:28.121Z,16.53
2017-10-16T06:24:54.737Z,18.53
2017-10-16T06:27:21.415Z,20.57
2017-10-16T06:29:48.013Z,16.53
2017-10-16T06:32:14.691Z,17.13
2017-10-16T06:34:41.327Z,13.73
2017-10-16T06:37:07.950Z,13.80
2017-10-16T06:39:34.590Z,13.40
2017-10-16T06:42:01.214Z,15.17
2017-10-16T06:44:27.841Z,15.43
2017-10-16T06:46:54.518Z,13.93
2017-10-16T06:49:21.150Z,15.97
2017-10-16T06:51:47.758Z,12.67
2017-10-16T06:54:14.360Z,13.77
2017-10-16T06:56:40.994Z,16.40
2017-10-16T06:59:07.647Z,17.47
2017-10-16T07:01:34.243Z,13.10
2017-10-16T07:04:00.885Z,13.00
2017-10-16T07:06:27.510Z,15.40
2017-10-16T07:08:54.145Z,16.87
2017-10-16T07:11:20.778Z,21.87
2017-10-16T07:13:47.459Z,13.97
2017-10-16T07:16:14.124Z,14.20
2017-10-16T07:18:40.759Z,12.37
2017-10-16T07:21:07.395Z,13.47
2017-10-16T07:23:34.042Z,15.47
2017-10-16T07:26:00.677Z,12.20
2017-10-16T07:28:27.362Z,14.73
2017-10-16T07:30:54.100Z,14.70
2017-10-16T07:33:20.758Z,16.50
2017-10-16T07:35:47.581Z,12.33
2017-10-16T07:38:14.734Z,13.70
2017-10-16T07:40:41.392Z,14.60
2017-10-16T07:43:08.018Z,12.57
2017-10-16T07:45:34.645Z,13.87
2017-10-16T07:48:01.285Z,17.43
2017-10-16T07:50:27.893Z,14.00
2017-10-16T07:52:54.537Z,12.20
2017-10-16T07:55:21.184Z,14.00
2017-10-16T07:57:47.937Z,16.03
2017-10-16T08:00:14.556Z,12.53
2017-10-16T08:02:41.182Z,11.37
2017-10-16T08:05:07.853Z,12.37
2017-10-16T08:07:34.478Z,14.50
2017-10-16T08:10:01.118Z,14.17
2017-10-16T08:12:27.730Z,13.37
2017-10-16T08:14:54.369Z,14.90
2017-10-16T08:17:21.026Z,13.63
2017-10-16T08:19:47.678Z,15.07
2017-10-16T08:22:14.302Z,14.00
2017-10-16T08:24:40.956Z,15.57
2017-10-16T08:27:07.563Z,14.13
2017-10-16T08:29:34.211Z,13.23
2017-10-16T08:32:00.906Z,11.00
2017-10-16T08:34:27.526Z,13.03
2017-10-16T08:36:54.150Z,14.37
2017-10-16T08:39:20.782Z,9.97
2017-10-16T08:41:47.401Z,13.00
2017-10-16T08:44:14.013Z,12.63
2017-10-16T08:46:40.655Z,11.80
2017-10-16T08:49:07.294Z,12.60
2017-10-16T08:51:33.938Z,12.40
2017-10-16T08:54:00.608Z,17.50
2017-10-16T08:56:27.206Z,20.40
2017-10-16T08:58:53.863Z,13.50
2017-10-16T09:01:20.466Z,11.33
2017-10-16T09:03:47.089Z,11.33
2017-10-16T09:06:13.746Z,9.77
2017-10-16T09:08:40.436Z,9.37
2017-10-16T09:11:07.054Z,11.30
2017-10-16T09:13:33.712Z,11.23
2017-10-16T09:16:00.329Z,9.90
2017-10-16T09:18:26.953Z,9.47
2017-10-16T09:20:53.580Z,8.90
2017-10-16T09:23:20.192Z,8.53
2017-10-16T09:25:46.834Z,9.87
2017-10-16T09:28:13.438Z,8.97
2017-10-16T09:30:40.105Z,10.83
2017-10-16T09:33:06.726Z,10.00
2017-10-16T09:35:33.339Z,16.53
2017-10-16T09:37:59.989Z,11.53
2017-10-16T09:40:26.576Z,9.30
2017-10-16T09:42:53.214Z,10.10
2017-10-16T09:45:19.825Z,10.17
2017-10-16T09:47:46.425Z,9.37
2017-10-16T09:50:13.050Z,9.30
2017-10-16T09:52:39.656Z,8.57
2017-10-16T09:55:06.288Z,9.00
2017-10-16T09:57:32.910Z,7.47
2017-10-16T09:59:59.561Z,11.60
2017-10-16T10:02:26.175Z,9.37
2017-10-16T10:04:52.802Z,11.50
2017-10-16T10:07:19.430Z,10.37
2017-10-16T10:09:46.061Z,9.47
2017-10-16T10:12:12.689Z,10.20
2017-10-16T10:14:39.327Z,10.47
2017-10-16T10:17:05.953Z,10.57
2017-10-16T10:19:32.590Z,10.37
2017-10-16T10:21:59.211Z,10.97
2017-10-16T10:24:25.838Z,11.47
2017-10-16T10:26:53.328Z,10.30
2017-10-16T10:29:19.999Z,9.27
2017-10-16T10:31:46.725Z,9.80
2017-10-16T10:34:13.455Z,9.07
2017-10-16T10:36:40.118Z,9.90
2017-10-16T10:39:06.758Z,9.93
2017-10-16T10:41:33.362Z,10.93
2017-10-16T10:44:00.032Z,9.73
2017-10-16T10:46:26.670Z,10.80
2017-10-16T10:48:53.310Z,10.27
2017-10-16T10:51:19.921Z,10.40
2017-10-16T10:53:46.521Z,8.97
2017-10-16T10:56:13.169Z,9.43
2017-10-16T10:58:39.790Z,10.20
2017-10-16T11:01:06.434Z,9.97
2017-10-16T11:03:33.073Z,12.70
2017-10-16T11:05:59.719Z,9.23
2017-10-16T11:08:26.330Z,10.93
2017-10-16T11:10:52.964Z,8.63
2017-10-16T11:13:19.686Z,10.50
2017-10-16T11:15:46.301Z,8.33
2017-10-16T11:18:12.918Z,9.67
2017-10-16T11:20:39.587Z,10.50
2017-10-16T11:23:06.269Z,10.33
2017-10-16T11:25:32.918Z,14.93
2017-10-16T11:27:59.826Z,9.17
2017-10-16T11:30:26.595Z,10.00
2017-10-16T11:32:54.260Z,13.30
2017-10-16T11:35:21.234Z,9.47
2017-10-16T11:37:49.681Z,10.23
2017-10-16T11:40:16.308Z,10.50
2017-10-16T11:42:43.053Z,9.53
2017-10-16T11:45:09.735Z,9.20
2017-10-16T11:47:36.341Z,10.17
2017-10-16T11:50:02.957Z,8.63
2017-10-16T11:52:29.682Z,11.17
2017-10-16T11:54:56.293Z,8.17
2017-10-16T11:57:23.118Z,8.93
2017-10-16T11:59:49.721Z,15.93
2017-10-16T12:02:16.325Z,8.57
2017-10-16T12:04:42.966Z,8.60
2017-10-16T12:07:09.575Z,8.63
2017-10-16T12:09:36.251Z,9.73
2017-10-16T12:12:02.888Z,12.07
2017-10-16T12:14:29.609Z,14.00
2017-10-16T12:16:56.255Z,9.90
2017-10-16T12:19:22.859Z,11.80
2017-10-16T12:21:49.453Z,8.60
2017-10-16T12:24:16.084Z,9.50
2017-10-16T12:26:42.683Z,8.40
2017-10-16T12:29:09.314Z,10.90
2017-10-16T12:31:35.951Z,8.90
2017-10-16T12:34:02.581Z,8.10
2017-10-16T12:36:29.205Z,8.80
2017-10-16T12:38:55.812Z,9.60
2017-10-16T12:41:22.609Z,10.53
2017-10-16T12:43:49.222Z,10.47
2017-10-16T12:46:15.833Z,8.47
2017-10-16T12:48:42.470Z,8.17
2017-10-16T12:51:09.069Z,8.83
2017-10-16T12:53:35.670Z,9.37
2017-10-16T12:56:02.283Z,9.17
2017-10-16T12:58:28.880Z,8.73
2017-10-16T13:00:55.513Z,9.67
2017-10-16T13:03:22.105Z,8.40
2017-10-16T13:05:48.728Z,9.13
2017-10-16T13:08:15.354Z,9.70
2017-10-16T13:10:41.993Z,8.47
2017-10-16T13:13:08.601Z,9.53
2017-10-16T13:15:35.207Z,11.70
2017-10-16T13:18:01.824Z,7.87
2017-10-16T13:20:28.421Z,8.00
2017-10-16T13:22:55.142Z,8.60
2017-10-16T13:25:21.729Z,7.63
2017-10-16T13:27:48.325Z,7.83
2017-10-16T13:30:14.954Z,8.00
2017-10-16T13:32:41.561Z,7.87
2017-10-16T13:35:08.182Z,7.40
2017-10-16T13:37:34.797Z,12.20
2017-10-16T13:40:01.417Z,8.70
2017-10-16T13:42:28.143Z,8.13
2017-10-16T13:44:54.737Z,11.60
2017-10-16T13:47:21.333Z,9.37
2017-10-16T13:52:20.113Z,8.10
2017-10-16T13:54:46.766Z,8.77
2017-10-16T13:57:13.349Z,8.77
2017-10-16T13:59:39.965Z,8.10
2017-10-16T14:02:06.587Z,8.60
2017-10-16T14:04:34.046Z,9.80
2017-10-16T14:07:00.643Z,8.13
2017-10-16T14:09:27.267Z,8.10
2017-10-16T14:11:53.883Z,9.13
2017-10-16T14:14:20.499Z,8.47
2017-10-16T14:16:47.141Z,7.30
2017-10-16T14:19:13.742Z,8.47
2017-10-16T14:21:40.370Z,8.40
2017-10-16T14:24:06.989Z,11.20
2017-10-16T14:26:33.610Z,7.27
2017-10-16T14:29:00.208Z,8.07
2017-10-16T14:31:26.830Z,8.93
2017-10-16T14:33:53.438Z,8.50
2017-10-16T14:36:20.038Z,9.00
2017-10-16T14:38:46.664Z,8.43
2017-10-16T14:41:13.289Z,11.60
2017-10-16T14:43:39.927Z,8.30
2017-10-16T14:46:06.548Z,9.80
2017-10-16T14:48:33.140Z,8.70
2017-10-16T14:50:59.747Z,10.20
2017-10-16T14:53:26.349Z,9.17
2017-10-16T14:55:52.972Z,8.37
2017-10-16T14:58:19.589Z,8.37
2017-10-16T15:00:46.213Z,9.60
2017-10-16T15:03:12.854Z,7.70
2017-10-16T15:05:39.452Z,8.23
2017-10-16T15:08:06.105Z,8.83
2017-10-16T15:10:32.726Z,14.30
2017-10-16T15:12:59.326Z,8.27
2017-10-16T15:15:25.964Z,8.30
2017-10-16T15:17:52.565Z,8.03
2017-10-16T15:20:19.194Z,8.83
2017-10-16T15:22:45.805Z,8.20
2017-10-16T15:25:12.434Z,11.17
2017-10-16T15:27:39.050Z,9.10
2017-10-16T15:30:05.694Z,8.13
2017-10-16T15:32:32.315Z,9.60
2017-10-16T15:34:58.942Z,11.00
2017-10-16T15:37:25.590Z,10.23
2017-10-16T15:39:52.225Z,8.43
2017-10-16T15:42:18.842Z,7.67
2017-10-16T15:44:45.441Z,8.57
2017-10-16T15:47:12.205Z,8.20
2017-10-16T15:49:38.821Z,9.77
2017-10-16T15:52:05.523Z,7.37
2017-10-16T15:54:32.222Z,11.97
2017-10-16T15:56:58.849Z,7.97
2017-10-16T15:59:25.441Z,8.90
2017-10-16T16:01:52.137Z,8.77
2017-10-16T16:04:18.729Z,10.93
2017-10-16T16:06:45.411Z,10.43
2017-10-16T16:09:12.010Z,8.30
2017-10-16T16:11:38.684Z,11.57
2017-10-16T16:14:06.873Z,8.70
2017-10-16T16:16:33.674Z,8.30
2017-10-16T16:19:04.077Z,9.13
2017-10-16T16:21:30.923Z,9.40
2017-10-16T16:23:57.620Z,13.57
2017-10-16T16:26:24.278Z,8.87
2017-10-16T16:28:50.950Z,8.43
2017-10-16T16:31:17.631Z,9.87
2017-10-16T16:33:44.245Z,14.23
2017-10-16T16:36:10.955Z,11.47
2017-10-16T16:38:37.558Z,11.50
2017-10-16T16:41:04.214Z,9.73
2017-10-16T16:43:30.911Z,10.13
2017-10-16T16:45:57.807Z,11.50
2017-10-16T16:48:24.453Z,10.63
2017-10-16T16:50:51.104Z,9.63
2017-10-16T16:53:17.774Z,9.10
2017-10-16T16:55:44.448Z,12.83
2017-10-16T16:58:11.121Z,13.53
2017-10-16T17:00:37.800Z,11.27
2017-10-16T17:03:04.462Z,12.17
2017-10-16T17:05:31.075Z,10.60
2017-10-16T17:07:57.704Z,12.23
2017-10-16T17:10:24.406Z,13.20
2017-10-16T17:12:51.057Z,10.23
2017-10-16T17:15:17.703Z,14.37
2017-10-16T17:17:44.449Z,11.70
2017-10-16T17:20:11.120Z,11.40
2017-10-16T17:22:37.753Z,10.73
2017-10-16T17:25:04.370Z,10.90
2017-10-16T17:27:30.981Z,10.93
2017-10-16T17:29:57.653Z,10.63
2017-10-16T17:32:24.303Z,11.13
2017-10-16T17:34:50.978Z,15.00
2017-10-16T17:37:17.635Z,12.07
2017-10-16T17:39:44.356Z,11.90
2017-10-16T17:42:11.101Z,12.00
2017-10-16T17:44:37.798Z,11.83
2017-10-16T17:47:04.455Z,13.70
2017-10-16T17:49:31.099Z,12.77
2017-10-16T17:51:57.825Z,14.43
2017-10-16T17:54:24.510Z,11.63
2017-10-16T17:56:51.225Z,11.77
2017-10-16T17:59:17.889Z,11.23
2017-10-16T18:01:44.586Z,12.70
2017-10-16T18:04:11.266Z,12.70
2017-10-16T18:06:37.910Z,12.27
2017-10-16T18:09:04.567Z,12.73
2017-10-16T18:11:31.237Z,16.43
2017-10-16T18:13:57.881Z,11.80
2017-10-16T18:16:24.534Z,12.17
2017-10-16T18:18:51.157Z,14.20
2017-10-16T18:21:17.782Z,17.83
2017-10-16T18:23:44.439Z,14.60
2017-10-16T18:26:11.131Z,14.00
2017-10-16T18:28:37.857Z,13.17
2017-10-16T18:31:04.518Z,13.20
2017-10-16T18:33:31.201Z,14.07
2017-10-16T18:35:58.043Z,15.70
2017-10-16T18:38:24.733Z,13.23
2017-10-16T18:40:51.426Z,17.17
2017-10-16T18:43:18.077Z,14.03
2017-10-16T18:45:44.730Z,15.77
2017-10-16T18:48:11.391Z,16.50
2017-10-16T18:50:37.993Z,13.20
2017-10-16T18:55:37.752Z,14.93
2017-10-16T18:58:04.456Z,15.93
2017-10-16T19:00:31.134Z,13.77
2017-10-16T19:02:57.782Z,14.70
2017-10-16T19:05:24.433Z,14.93
2017-10-16T19:07:51.083Z,13.87
2017-10-16T19:10:17.715Z,17.40
2017-10-16T19:12:44.329Z,19.50
2017-10-16T19:15:10.989Z,16.53
2017-10-16T19:17:37.627Z,15.00
2017-10-16T19:20:04.300Z,19.40
2017-10-16T19:22:30.950Z,18.90
2017-10-16T19:24:57.631Z,17.80
2017-10-16T19:27:24.298Z,15.40
2017-10-16T19:29:50.951Z,14.87
2017-10-16T19:32:17.627Z,17.13
2017-10-16T19:34:44.354Z,15.60
2017-10-16T19:37:11.028Z,14.63
2017-10-16T19:39:37.726Z,16.87
2017-10-16T19:42:04.402Z,14.53
2017-10-16T19:44:31.014Z,15.30
2017-10-16T19:46:57.666Z,13.70
2017-10-16T19:49:24.340Z,17.30
2017-10-16T19:51:51.036Z,16.50
2017-10-16T19:54:17.690Z,16.70
2017-10-16T19:56:44.361Z,15.40
2017-10-16T19:59:11.002Z,18.53
2017-10-16T20:01:37.739Z,16.30
2017-10-16T20:04:04.374Z,20.10
2017-10-16T20:06:31.024Z,19.07
2017-10-16T20:08:57.859Z,20.10
2017-10-16T20:11:24.489Z,19.57
2017-10-16T20:13:51.337Z,15.73
2017-10-16T20:16:17.982Z,15.83
2017-10-16T20:18:44.610Z,15.80
2017-10-16T20:21:11.260Z,17.17
2017-10-16T20:23:37.889Z,16.27
2017-10-16T20:26:04.513Z,20.03
2017-10-16T20:28:31.153Z,19.47
2017-10-16T20:30:58.121Z,16.80
2017-10-16T20:33:27.422Z,15.93
2017-10-16T20:35:54.069Z,15.97
2017-10-16T20:38:20.717Z,16.63
2017-10-16T20:40:49.768Z,19.93
2017-10-16T20:43:16.409Z,18.40
2017-10-16T20:45:43.026Z,18.33
2017-10-16T20:48:09.666Z,17.90
2017-10-16T20:50:36.274Z,19.43
2017-10-16T20:53:03.399Z,21.43
2017-10-16T20:55:30.033Z,19.73
2017-10-16T20:57:57.350Z,16.77
2017-10-16T21:00:23.979Z,16.87
2017-10-16T21:02:50.631Z,19.83
2017-10-16T21:05:17.290Z,18.70
2017-10-16T21:07:43.896Z,17.07
2017-10-16T21:10:10.525Z,20.00
2017-10-16T21:12:37.138Z,19.30
2017-10-16T21:15:03.840Z,19.67
2017-10-16T21:17:30.448Z,20.13
2017-10-16T21:19:57.086Z,23.93
2017-10-16T21:22:23.710Z,20.07
2017-10-16T21:24:50.350Z,22.93
2017-10-16T21:27:16.957Z,20.03
2017-10-16T21:29:43.630Z,17.37
2017-10-16T21:32:10.306Z,17.60
2017-10-16T21:34:36.930Z,17.53
2017-10-16T21:37:03.541Z,17.50
2017-10-16T21:39:30.173Z,16.60
2017-10-16T21:41:56.785Z,21.47
2017-10-16T21:44:23.421Z,17.30
2017-10-16T21:46:50.030Z,15.20
2017-10-16T21:49:16.668Z,17.20
2017-10-16T21:51:43.306Z,16.47
2017-10-16T21:54:09.901Z,22.73
2017-10-16T21:56:36.533Z,17.17
2017-10-16T21:59:03.157Z,16.00
2017-10-16T22:01:29.859Z,16.33
2017-10-16T22:03:56.491Z,16.20
2017-10-16T22:06:23.097Z,16.63
2017-10-16T22:08:49.875Z,16.47
2017-10-16T22:11:16.465Z,15.13
2017-10-16T22:13:43.078Z,19.80
2017-10-16T22:16:09.721Z,17.37
2017-10-16T22:18:36.382Z,16.33
2017-10-16T22:21:02.995Z,17.70
2017-10-16T22:23:29.604Z,19.03
2017-10-16T22:25:56.231Z,15.73
2017-10-16T22:28:22.878Z,15.10
2017-10-16T22:30:49.525Z,17.23
2017-10-16T22:33:16.132Z,16.27
2017-10-16T22:35:42.750Z,16.60
2017-10-16T22:38:09.376Z,15.83
2017-10-16T22:40:35.993Z,20.10
2017-10-16T22:43:02.614Z,16.53
2017-10-16T22:45:29.341Z,15.97
2017-10-16T22:47:55.951Z,16.07
2017-10-16T22:50:22.569Z,15.03
2017-10-16T22:52:49.208Z,17.60
2017-10-16T22:55:15.809Z,16.47
2017-10-16T22:57:42.457Z,15.73
2017-10-16T23:00:09.057Z,21.80
2017-10-16T23:02:35.708Z,16.30
2017-10-16T23:05:02.448Z,20.07
2017-10-16T23:07:29.053Z,15.80
2017-10-16T23:09:55.667Z,16.50
2017-10-16T23:12:22.358Z,16.50
2017-10-16T23:14:48.985Z,17.57
2017-10-16T23:17:15.610Z,16.20
2017-10-16T23:19:42.225Z,16.70
2017-10-16T23:22:08.861Z,19.13
2017-10-16T23:24:35.522Z,17.27
2017-10-16T23:27:02.125Z,18.93
2017-10-16T23:29:28.828Z,17.23
2017-10-16T23:31:55.428Z,14.67
2017-10-16T23:34:22.060Z,14.73
2017-10-16T23:36:48.675Z,15.23
2017-10-16T23:39:15.318Z,17.60
2017-10-16T23:41:41.952Z,15.93
2017-10-16T23:44:08.561Z,16.73
2017-10-16T23:46:35.208Z,16.13
2017-10-16T23:49:01.927Z,14.80
2017-10-16T23:51:28.558Z,16.60
2017-10-16T23:53:55.170Z,15.20
2017-10-16T23:56:21.841Z,15.03
2017-10-16T23:58:48.449Z,15.10
